Aeroporto :
LOGIN :

Iscrizione | Disclaimer

   EN    FR    IT 

 










Sommario :    VFR   VFR Marginale   IFR   IFR Intensivo   IFR Molto Intensivo
Visibilità : 
Base nubi : 
>= 8 km
>= 3000ft
5 / 8 km
1000 / 3000 ft
1500m / 5 km
500 / 1000 ft
800 / 1500m
200 / 500 ft
< 800m
< 200 ft
Simboli :   Temporali  Nebbia  Neve Forte  Precipitazioni Forti  Vento > 20 kt
SIGMETs :   Varie  Temporali  Ghiacco  Turbolenza  Onda orograficha  Ceneri Vulcaniche






- Altitudine del aeroporto : 1325 ft
- Codice IATA : EBU


LFMH - St-Etienne Boutheon

ULTIMO METAR :
  • 051400Z AUTO VRB03KT 9999 BKN048 BKN056 BKN070 23/11 Q1012

METARs OBSOLETI :
  • 051330Z AUTO VRB03KT 9999 FEW043 BKN070 23/12 Q1013
  • 051300Z AUTO VRB03KT 9999 BKN050 22/12 Q1013
  • 051230Z AUTO 04005KT 360V110 9999 FEW042 22/13 Q1013
  • 051200Z AUTO 02008KT 9999 BKN040 BKN068 21/13 Q1013
  • 051130Z AUTO 02007KT 340V070 CAVOK 21/14 Q1014

Previsioni scadute.
ATIS : +33 4 77 36 17 51



MetMap, La meteo Aeronautica in un colpo d'occhio ! - Copyright ORBIFLY Dicembre 2007 - Disclaimer

ORBIFLY MET'MAP TEAM :

Programmazione e sviluppo : Alexandra Zaïnal
Concezione : Baudouin d'Aumeries
Aiuto per la programmazione : Marc-Olivier Méhu
Supporto tecnico e logistico : Manuel Goepfert
Aiuto per la traduzione : Arnaldo La Scala

Contatto : metmap@orbifly.com




FONTI E CREDITI :

   NOAA